Time;durP1;ratioP1;P1;durP2;ratioP2;P2;SDS_P1;SDS_P2;PMS_P1;PMS_P2;Temp;Humidity;BMP_temperature;BMP_pressure;BME280_temperature;BME280_humidity;BME280_pressure;Samples;Min_cycle;Max_cycle;Signal;HPM_P1;HPM_P2
2022/05/02 00:01:31;;;;;;;2.42;2.25;;;17.70;61.40;;;;;;5032743;28;20087;-66
2022/05/02 00:03:56;;;;;;;3.75;2.53;;;17.70;61.40;;;;;;5032631;28;20478;-66
2022/05/02 00:06:22;;;;;;;2.55;2.40;;;17.70;61.40;;;;;;5032734;28;20059;-66
2022/05/02 00:08:47;;;;;;;2.50;2.30;;;17.70;61.50;;;;;;5032478;28;20029;-65
2022/05/02 00:11:13;;;;;;;2.88;2.15;;;17.70;61.50;;;;;;5031040;28;20041;-66
2022/05/02 00:13:39;;;;;;;2.63;2.22;;;17.60;61.50;;;;;;5032120;28;20051;-66
2022/05/02 00:16:07;;;;;;;2.72;2.53;;;17.70;61.60;;;;;;5032433;28;20061;-66
2022/05/02 00:18:33;;;;;;;2.33;2.13;;;17.70;61.60;;;;;;5032377;28;20377;-65
2022/05/02 00:20:59;;;;;;;3.25;2.45;;;17.70;61.70;;;;;;5031085;28;20075;-66
2022/05/02 00:23:24;;;;;;;5.60;2.47;;;17.60;61.60;;;;;;5032325;28;20026;-65
2022/05/02 00:25:50;;;;;;;2.45;2.25;;;17.60;61.70;;;;;;5014678;28;20026;-66
2022/05/02 00:28:16;;;;;;;3.17;2.35;;;17.70;61.80;;;;;;5032308;28;20033;-66
2022/05/02 00:30:42;;;;;;;2.15;1.95;;;17.60;61.70;;;;;;5032420;28;20029;-66
2022/05/02 00:33:08;;;;;;;4.30;2.78;;;17.70;61.90;;;;;;5014646;28;20076;-66
2022/05/02 00:35:34;;;;;;;5.15;2.33;;;17.70;61.80;;;;;;5032281;28;20444;-66
2022/05/02 00:37:59;;;;;;;4.10;2.20;;;17.60;61.80;;;;;;5032266;28;20021;-65
2022/05/02 00:40:25;;;;;;;2.30;2.20;;;17.60;61.80;;;;;;5031826;28;20041;-66
2022/05/02 00:42:50;;;;;;;2.60;2.40;;;17.70;61.90;;;;;;5031005;28;20025;-65
2022/05/02 00:45:17;;;;;;;2.92;2.20;;;17.70;62.00;;;;;;5014087;28;20554;-66
2022/05/02 00:47:54;;;;;;;2.50;2.00;;;17.60;61.90;;;;;;5031029;28;20076;-66
2022/05/02 00:50:41;;;;;;;2.47;2.25;;;17.70;62.10;;;;;;5031961;28;20028;-66
2022/05/02 00:53:09;;;;;;;2.65;2.45;;;17.70;62.20;;;;;;5031816;28;20037;-66
2022/05/02 00:55:35;;;;;;;3.65;2.42;;;17.60;62.10;;;;;;5030529;28;20382;-66
2022/05/02 00:58:01;;;;;;;2.60;2.40;;;17.60;62.20;;;;;;5014477;28;20155;-66
2022/05/02 01:00:28;;;;;;;2.97;2.40;;;17.60;62.20;;;;;;5031881;28;20079;-66
2022/05/02 01:02:54;;;;;;;2.50;2.25;;;17.70;62.20;;;;;;5030889;28;20022;-66
2022/05/02 01:05:19;;;;;;;2.95;2.25;;;17.60;62.20;;;;;;5031819;28;20027;-65
2022/05/02 01:07:46;;;;;;;3.03;2.25;;;17.60;62.20;;;;;;5031873;28;20104;-66
2022/05/02 01:10:16;;;;;;;2.25;2.05;;;17.60;62.30;;;;;;5030570;28;20369;-66
2022/05/02 01:12:46;;;;;;;2.60;2.40;;;17.60;62.30;;;;;;5030929;28;20124;-66
2022/05/02 01:15:11;;;;;;;2.50;2.20;;;17.60;62.30;;;;;;5031655;28;20075;-66
2022/05/02 01:17:37;;;;;;;3.20;2.30;;;17.60;62.40;;;;;;5030706;28;20018;-66
2022/05/02 01:20:18;;;;;;;2.38;2.17;;;17.70;62.50;;;;;;5031770;28;20032;-66
2022/05/02 01:22:44;;;;;;;2.28;2.08;;;17.70;62.50;;;;;;5032373;28;20088;-65
2022/05/02 01:25:10;;;;;;;2.72;2.53;;;17.60;62.60;;;;;;5035279;28;20064;-65
2022/05/02 01:27:35;;;;;;;2.13;2.00;;;17.60;62.60;;;;;;5034329;28;20083;-66
2022/05/02 01:30:01;;;;;;;2.50;2.30;;;17.60;62.50;;;;;;5035429;28;20499;-65
2022/05/02 01:32:27;;;;;;;2.58;2.38;;;17.60;62.60;;;;;;5035179;28;20434;-65
2022/05/02 01:34:52;;;;;;;2.13;2.03;;;17.60;62.60;;;;;;5034061;28;20029;-65
2022/05/02 01:37:18;;;;;;;2.22;2.03;;;17.60;62.60;;;;;;5035188;28;20464;-65
2022/05/02 01:39:44;;;;;;;2.33;2.10;;;17.60;62.70;;;;;;5035024;28;20018;-65
2022/05/02 01:42:10;;;;;;;2.33;2.13;;;17.70;62.80;;;;;;5034916;28;20053;-65
2022/05/02 01:44:36;;;;;;;2.65;2.10;;;17.60;62.70;;;;;;5033911;28;20021;-66
2022/05/02 01:47:02;;;;;;;2.63;2.35;;;17.60;62.70;;;;;;5035172;28;20037;-65
2022/05/02 01:49:28;;;;;;;4.57;2.30;;;17.70;62.80;;;;;;5034035;28;20071;-66
2022/05/02 01:51:53;;;;;;;2.45;2.10;;;17.60;62.80;;;;;;5035052;28;20116;-65
2022/05/02 01:54:19;;;;;;;3.92;2.20;;;17.70;62.90;;;;;;5034533;28;20025;-65
2022/05/02 01:56:45;;;;;;;2.25;2.05;;;17.60;62.90;;;;;;5033703;28;20021;-65
2022/05/02 01:59:11;;;;;;;2.38;2.28;;;17.70;62.90;;;;;;5034695;28;20025;-65
2022/05/02 02:01:36;;;;;;;6.55;2.60;;;17.60;63.00;;;;;;5033606;28;20029;-65
2022/05/02 02:05:48;;;;;;;2.50;2.30;;;17.70;63.00;;;;;;5033904;28;20480;-65
2022/05/02 02:06:51;;;;;;;2.50;2.30;;;17.60;63.00;;;;;;5033662;28;20039;-66
2022/05/02 02:09:17;;;;;;;3.53;2.78;;;17.60;63.10;;;;;;5016869;28;20025;-65
2022/05/02 02:11:43;;;;;;;2.15;1.95;;;17.70;63.10;;;;;;5033511;28;20029;-65
2022/05/02 02:14:08;;;;;;;2.92;2.17;;;17.60;63.00;;;;;;5034571;28;20075;-65
2022/05/02 02:16:34;;;;;;;3.30;2.35;;;17.60;63.10;;;;;;5033393;28;20095;-66
2022/05/02 02:19:00;;;;;;;3.60;2.00;;;17.60;63.20;;;;;;5033423;28;20138;-66
2022/05/02 02:21:25;;;;;;;2.95;2.03;;;17.60;63.10;;;;;;5033086;28;20021;-66
2022/05/02 02:23:51;;;;;;;2.38;2.22;;;17.60;63.20;;;;;;5033031;28;20120;-66
2022/05/02 02:26:17;;;;;;;2.22;2.08;;;17.60;63.20;;;;;;5033011;28;20032;-66
2022/05/02 02:28:42;;;;;;;2.30;2.08;;;17.60;63.20;;;;;;5034398;28;20492;-66
2022/05/02 02:31:08;;;;;;;2.85;2.20;;;17.60;63.30;;;;;;5034115;28;20026;-66
2022/05/02 02:33:34;;;;;;;2.67;2.17;;;17.60;63.30;;;;;;5033928;28;20112;-66
2022/05/02 02:35:59;;;;;;;3.38;2.28;;;17.60;63.30;;;;;;5034324;28;20488;-66
2022/05/02 02:38:25;;;;;;;2.67;2.00;;;17.70;63.40;;;;;;5032690;28;20026;-66
2022/05/02 02:40:51;;;;;;;2.22;2.00;;;17.60;63.30;;;;;;5032879;28;20475;-65
2022/05/02 02:43:17;;;;;;;2.50;2.30;;;17.60;63.30;;;;;;5034012;28;20056;-66
2022/05/02 02:45:43;;;;;;;2.25;2.03;;;17.60;63.40;;;;;;5032340;28;20434;-66
2022/05/02 02:48:09;;;;;;;2.53;2.33;;;17.60;63.40;;;;;;5032853;28;20503;-66
2022/05/02 02:50:34;;;;;;;2.50;2.30;;;17.60;63.40;;;;;;5033914;28;20074;-65
2022/05/02 02:53:00;;;;;;;2.30;2.08;;;17.60;63.50;;;;;;5033449;28;20459;-66
2022/05/02 02:55:26;;;;;;;2.17;1.95;;;17.60;63.50;;;;;;5032431;28;20025;-66
2022/05/02 02:57:52;;;;;;;2.20;2.00;;;17.60;63.50;;;;;;5016205;28;20098;-66
2022/05/02 03:00:18;;;;;;;2.50;2.30;;;17.60;63.50;;;;;;5033744;28;20033;-66
2022/05/02 03:02:43;;;;;;;1.85;1.75;;;17.60;63.50;;;;;;5033784;28;20059;-66
2022/05/02 03:07:53;;;;;;;2.17;1.88;;;17.60;63.60;;;;;;5033794;28;20040;-66
2022/05/02 03:10:19;;;;;;;3.38;2.47;;;17.60;63.60;;;;;;5033308;28;20030;-66
2022/05/02 03:12:45;;;;;;;2.30;2.20;;;17.60;63.70;;;;;;5032429;28;20057;-66
2022/05/02 03:15:11;;;;;;;2.45;2.22;;;17.60;63.70;;;;;;5033318;28;20034;-66
2022/05/02 03:17:36;;;;;;;3.70;2.28;;;17.60;63.70;;;;;;5033350;28;20502;-66
2022/05/02 03:20:03;;;;;;;2.10;1.95;;;17.60;63.70;;;;;;5033111;28;20575;-66
2022/05/02 03:22:28;;;;;;;2.00;1.90;;;17.60;63.70;;;;;;5033202;28;20017;-66
2022/05/02 03:24:54;;;;;;;2.20;2.10;;;17.70;63.80;;;;;;5033226;28;20408;-65
2022/05/02 03:27:19;;;;;;;3.58;2.35;;;17.60;63.70;;;;;;5032083;28;20039;-65
2022/05/02 03:29:45;;;;;;;2.78;2.30;;;17.60;63.80;;;;;;5033337;28;20117;-66
2022/05/02 03:32:11;;;;;;;2.47;2.25;;;17.60;63.80;;;;;;5031993;28;20106;-66
2022/05/02 03:34:36;;;;;;;1.90;1.80;;;17.60;63.90;;;;;;5032866;28;20132;-66
2022/05/02 03:37:02;;;;;;;2.50;2.10;;;17.60;63.80;;;;;;5033168;28;20431;-65
2022/05/02 03:39:28;;;;;;;2.30;2.10;;;17.60;63.90;;;;;;5033073;28;20453;-65
2022/05/02 03:41:54;;;;;;;1.98;1.88;;;17.60;63.90;;;;;;5032745;28;20045;-65
2022/05/02 03:44:19;;;;;;;2.53;2.17;;;17.60;63.90;;;;;;5031356;28;20021;-65
2022/05/02 03:46:45;;;;;;;4.38;2.33;;;17.60;63.90;;;;;;5032338;28;20029;-66
2022/05/02 03:49:11;;;;;;;2.83;2.10;;;17.60;64.00;;;;;;5031579;28;20029;-65
2022/05/02 03:51:36;;;;;;;2.33;1.95;;;17.60;64.00;;;;;;5032719;28;20048;-65
2022/05/02 03:54:02;;;;;;;2.10;1.90;;;17.60;64.00;;;;;;5032686;28;20033;-66
2022/05/02 03:56:28;;;;;;;2.40;2.13;;;17.60;64.00;;;;;;5031360;28;20014;-66
2022/05/02 03:58:54;;;;;;;2.13;2.03;;;17.60;64.10;;;;;;5032573;28;20022;-66
2022/05/02 04:01:19;;;;;;;2.30;2.10;;;17.70;64.20;;;;;;5031468;28;20369;-66
2022/05/02 04:03:46;;;;;;;2.20;2.00;;;17.60;64.10;;;;;;5031250;28;20034;-66
2022/05/02 04:06:12;;;;;;;2.30;2.10;;;17.60;64.20;;;;;;5032603;28;20511;-66
2022/05/02 04:08:38;;;;;;;2.42;2.10;;;17.60;64.20;;;;;;5032337;28;20029;-65
2022/05/02 04:11:03;;;;;;;2.88;2.10;;;17.70;64.30;;;;;;5031258;28;20052;-66
2022/05/02 04:13:29;;;;;;;1.90;1.80;;;17.60;64.20;;;;;;5032307;28;20033;-66
2022/05/02 04:15:55;;;;;;;2.15;2.03;;;17.60;64.20;;;;;;5032489;28;20022;-66
2022/05/02 04:18:20;;;;;;;2.97;1.77;;;17.60;64.20;;;;;;5032226;28;20029;-66
2022/05/02 04:20:46;;;;;;;2.10;2.00;;;17.60;64.30;;;;;;5032418;28;20075;-66
2022/05/02 04:23:12;;;;;;;3.05;2.20;;;17.60;64.30;;;;;;5032145;28;20025;-66
2022/05/02 04:25:37;;;;;;;2.20;2.10;;;17.60;64.30;;;;;;5031092;28;20021;-66
2022/05/02 04:28:03;;;;;;;1.73;1.63;;;17.60;64.30;;;;;;5032507;28;20033;-66
2022/05/02 04:30:29;;;;;;;2.95;1.98;;;17.60;64.40;;;;;;5032077;28;20435;-66
2022/05/02 04:32:55;;;;;;;2.20;2.00;;;17.60;64.40;;;;;;5030898;28;20105;-66
2022/05/02 04:35:20;;;;;;;4.22;2.30;;;17.60;64.50;;;;;;5032159;28;20512;-66
2022/05/02 04:37:46;;;;;;;3.03;2.13;;;17.70;64.50;;;;;;5032048;28;20080;-66
2022/05/02 04:40:12;;;;;;;1.90;1.80;;;17.60;64.50;;;;;;5032107;28;20097;-66
2022/05/02 04:42:40;;;;;;;2.38;2.17;;;17.60;64.50;;;;;;5032155;28;20112;-66
2022/05/02 04:45:06;;;;;;;2.85;2.20;;;17.60;64.50;;;;;;5031951;28;20415;-66
2022/05/02 04:47:32;;;;;;;2.33;2.13;;;17.60;64.50;;;;;;5031692;28;20120;-66
2022/05/02 04:49:57;;;;;;;2.15;2.05;;;17.60;64.50;;;;;;5031934;28;20100;-66
2022/05/02 04:52:23;;;;;;;1.83;1.73;;;17.60;64.50;;;;;;5032071;28;20119;-66
2022/05/02 04:54:49;;;;;;;2.63;2.42;;;17.60;64.50;;;;;;5032049;28;20035;-66
2022/05/02 04:57:15;;;;;;;1.80;1.70;;;17.60;64.60;;;;;;5032118;28;20097;-66
2022/05/02 04:59:40;;;;;;;2.00;1.90;;;17.60;64.60;;;;;;5034491;28;20033;-65
2022/05/02 05:02:06;;;;;;;2.30;2.10;;;17.60;64.60;;;;;;5035960;28;20024;-66
2022/05/02 05:04:31;;;;;;;2.35;2.20;;;17.60;64.60;;;;;;5035873;28;20029;-66
2022/05/02 05:06:57;;;;;;;2.80;1.98;;;17.60;64.60;;;;;;5035770;28;20036;-66
2022/05/02 05:09:23;;;;;;;2.35;2.00;;;17.60;64.60;;;;;;5034628;28;20036;-66
2022/05/02 05:11:55;;;;;;;2.30;2.10;;;17.60;64.60;;;;;;5034706;28;20051;-66
2022/05/02 05:17:42;;;;;;;2.45;2.22;;;17.60;64.90;;;;;;5035565;28;19911;-66
2022/05/02 05:20:14;;;;;;;3.25;1.90;;;17.50;65.10;;;;;;5035875;28;20023;-66
2022/05/02 05:22:52;;;;;;;2.67;2.25;;;17.60;65.00;;;;;;5034331;28;20028;-66
2022/05/02 05:25:53;;;;;;;2.70;2.00;;;17.50;65.00;;;;;;5035599;28;20036;-65
2022/05/02 05:28:33;;;;;;;4.25;2.20;;;17.60;64.90;;;;;;5013472;28;20041;-66
2022/05/02 05:31:36;;;;;;;1.90;1.80;;;17.50;64.90;;;;;;5013450;28;20119;-66
2022/05/02 05:34:09;;;;;;;2.65;2.20;;;17.60;65.00;;;;;;5013393;28;20087;-66
2022/05/02 05:37:01;;;;;;;2.22;2.03;;;17.50;65.00;;;;;;4997184;28;20033;-66
2022/05/02 05:39:31;;;;;;;7.22;2.00;;;17.60;65.00;;;;;;5013524;28;20496;-66
2022/05/02 05:42:15;;;;;;;2.00;1.88;;;17.50;65.00;;;;;;4996911;28;20065;-66
2022/05/02 05:45:03;;;;;;;1.90;1.80;;;17.50;65.00;;;;;;4993511;28;20033;-65
2022/05/02 05:47:42;;;;;;;1.92;1.83;;;17.60;66.00;;;;;;4977665;28;20030;-66
2022/05/02 05:50:20;;;;;;;2.05;1.95;;;17.60;65.00;;;;;;4995126;28;20038;-66
2022/05/02 05:53:04;;;;;;;2.03;1.80;;;17.60;65.10;;;;;;4979620;28;20105;-65
2022/05/02 05:55:48;;;;;;;2.25;2.08;;;17.60;65.00;;;;;;4981674;28;20045;-65
2022/05/02 05:58:33;;;;;;;1.95;1.85;;;17.60;65.00;;;;;;4995067;28;20022;-65
2022/05/02 06:01:10;;;;;;;2.50;2.17;;;17.60;65.00;;;;;;4982002;28;20027;-66
2022/05/02 06:03:42;;;;;;;2.40;2.20;;;17.60;65.00;;;;;;5037824;28;20037;-66
2022/05/02 06:06:08;;;;;;;2.35;2.05;;;17.50;64.90;;;;;;5031739;28;20025;-65
2022/05/02 06:08:33;;;;;;;2.35;2.15;;;17.50;64.90;;;;;;5033651;28;20373;-65
2022/05/02 06:10:59;;;;;;;2.63;2.35;;;17.50;64.80;;;;;;5033902;28;20030;-65
2022/05/02 06:13:25;;;;;;;3.22;2.40;;;17.50;64.70;;;;;;5034023;28;20376;-65
2022/05/02 06:18:37;;;;;;;2.63;2.42;;;17.40;64.50;;;;;;5034294;28;20059;-66
2022/05/02 06:21:05;;;;;;;3.40;2.33;;;17.40;64.60;;;;;;5033968;28;20017;-66
2022/05/02 06:23:43;;;;;;;2.50;2.30;;;17.40;64.50;;;;;;5029741;28;20579;-65
2022/05/02 06:26:09;;;;;;;2.45;2.25;;;17.50;64.40;;;;;;5025722;28;20025;-66
2022/05/02 06:28:40;;;;;;;2.97;2.75;;;17.40;64.50;;;;;;5030837;28;20415;-66
2022/05/02 06:31:09;;;;;;;2.47;2.28;;;17.40;64.40;;;;;;5013628;28;20476;-66
2022/05/02 06:33:34;;;;;;;2.55;2.35;;;17.40;64.40;;;;;;5031539;28;20495;-66
2022/05/02 06:36:09;;;;;;;2.28;2.17;;;17.40;64.40;;;;;;5031661;28;20034;-66
2022/05/02 06:39:07;;;;;;;2.30;2.10;;;17.40;64.30;;;;;;5032802;28;20025;-65
2022/05/02 06:41:51;;;;;;;2.45;2.30;;;17.40;64.10;;;;;;5028333;28;20041;-66
2022/05/02 06:44:40;;;;;;;2.47;2.28;;;17.40;64.30;;;;;;5031348;28;20553;-65
2022/05/02 06:47:24;;;;;;;2.13;2.03;;;17.40;64.10;;;;;;5032805;28;20079;-65
2022/05/02 06:49:51;;;;;;;2.28;2.08;;;17.40;64.20;;;;;;5030394;28;20018;-65
2022/05/02 06:52:19;;;;;;;3.13;2.40;;;17.40;64.30;;;;;;5030339;28;20037;-65
2022/05/02 06:54:51;;;;;;;2.67;2.15;;;17.40;64.30;;;;;;5030015;28;20025;-65
2022/05/02 06:57:44;;;;;;;4.25;2.45;;;17.40;64.30;;;;;;5031074;28;20108;-65
2022/05/02 07:00:10;;;;;;;;;;;17.40;64.10;;;;;;5030564;28;20022;-65
2022/05/02 07:03:14;;;;;;;5.57;2.10;;;17.30;64.10;;;;;;5031777;28;19905;-65
2022/05/02 07:06:22;;;;;;;4.53;2.50;;;17.30;64.20;;;;;;5028324;28;20469;-65
2022/05/02 07:08:50;;;;;;;3.65;2.53;;;17.30;64.10;;;;;;5031298;28;20108;-65
2022/05/02 07:11:18;;;;;;;5.68;2.60;;;17.30;64.40;;;;;;5031378;28;20041;-65
2022/05/02 07:14:24;;;;;;;4.93;2.60;;;17.30;64.30;;;;;;5047678;28;20099;-65
2022/05/02 07:16:49;;;;;;;4.95;2.55;;;17.40;64.10;;;;;;5011612;28;20069;-65
2022/05/02 07:19:28;;;;;;;8.45;3.03;;;17.30;64.30;;;;;;5011442;28;20104;-65
2022/05/02 07:22:04;;;;;;;7.13;3.28;;;17.30;64.10;;;;;;4996420;28;20037;-65
2022/05/02 07:24:54;;;;;;;5.60;2.90;;;17.30;64.10;;;;;;5011370;28;20500;-65
2022/05/02 07:27:44;;;;;;;7.68;3.30;;;17.40;64.10;;;;;;5011225;28;20536;-65
2022/05/02 07:30:09;;;;;;;7.60;3.17;;;17.40;64.10;;;;;;5011364;28;20575;-65
2022/05/02 07:32:35;;;;;;;5.55;3.08;;;17.30;64.10;;;;;;5011425;28;20117;-65
2022/05/02 07:35:01;;;;;;;5.88;2.97;;;17.30;64.10;;;;;;5011008;28;20034;-65
2022/05/02 07:37:26;;;;;;;5.90;3.00;;;17.30;64.10;;;;;;5011312;28;20109;-65
2022/05/02 07:39:52;;;;;;;6.90;2.60;;;17.30;64.10;;;;;;4994785;28;20124;-65
2022/05/02 07:42:19;;;;;;;7.30;2.92;;;17.30;64.00;;;;;;4994575;28;20045;-65
2022/05/02 07:44:46;;;;;;;9.02;3.00;;;17.30;64.10;;;;;;4991404;28;20034;-65
2022/05/02 07:47:12;;;;;;;8.18;2.95;;;17.30;64.10;;;;;;4991456;28;20077;-65
2022/05/02 07:49:39;;;;;;;5.20;3.15;;;17.30;64.10;;;;;;4975209;28;20038;-65
2022/05/02 07:52:05;;;;;;;10.52;3.10;;;17.30;64.10;;;;;;4975507;28;20026;-65
2022/05/02 07:54:35;;;;;;;4.93;2.95;;;17.40;64.20;;;;;;5008380;28;20038;-65
2022/05/02 07:57:02;;;;;;;7.65;3.25;;;17.30;64.10;;;;;;5013187;28;20018;-65
2022/05/02 07:59:35;;;;;;;7.78;3.15;;;17.30;64.00;;;;;;5013026;28;20022;-65
2022/05/02 08:02:01;;;;;;;6.95;3.10;;;17.40;64.00;;;;;;5013050;28;20037;-65
2022/05/02 08:04:26;;;;;;;5.93;2.63;;;17.30;64.00;;;;;;5011808;28;20022;-65
2022/05/02 08:06:55;;;;;;;6.70;2.97;;;17.30;64.00;;;;;;5012940;28;20104;-65
2022/05/02 08:09:27;;;;;;;5.80;2.88;;;17.30;64.10;;;;;;5012824;28;20026;-65
2022/05/02 08:12:27;;;;;;;5.22;2.88;;;17.30;64.00;;;;;;5020768;28;20036;-65
2022/05/02 08:15:03;;;;;;;4.53;2.80;;;17.40;63.90;;;;;;5032376;28;20025;-65
2022/05/02 08:17:59;;;;;;;6.13;2.70;;;17.30;64.10;;;;;;5032622;28;20091;-65
2022/05/02 08:20:51;;;;;;;4.18;2.60;;;17.30;64.00;;;;;;5032428;28;20018;-65
2022/05/02 08:29:40;;;;;;;8.57;3.03;;;17.30;64.10;;;;;;5032332;28;20049;-65
2022/05/02 08:32:33;;;;;;;5.93;3.10;;;17.20;64.10;;;;;;5032303;28;20472;-65
2022/05/02 08:35:03;;;;;;;5.78;2.85;;;17.30;64.00;;;;;;5030913;28;20022;-65
2022/05/02 08:37:29;;;;;;;4.50;2.70;;;17.20;64.10;;;;;;5031165;28;20045;-65
2022/05/02 08:40:07;;;;;;;5.90;3.22;;;17.20;64.10;;;;;;5032003;28;20065;-65
2022/05/02 08:43:04;;;;;;;6.13;2.80;;;17.30;64.10;;;;;;5031138;28;20473;-65
2022/05/02 08:45:56;;;;;;;6.18;3.05;;;17.30;64.00;;;;;;5032187;28;20025;-65
2022/05/02 08:52:07;;;;;;;6.25;2.78;;;17.30;64.10;;;;;;5029632;28;20076;-66
2022/05/02 08:55:00;;;;;;;5.15;2.95;;;17.20;64.20;;;;;;5031679;28;20052;-65
2022/05/02 08:58:02;;;;;;;3.63;2.53;;;17.30;64.10;;;;;;5032384;28;20096;-65
2022/05/02 09:00:38;;;;;;;3.92;2.60;;;17.20;64.00;;;;;;5031906;28;20040;-65
2022/05/02 09:03:20;;;;;;;4.45;2.47;;;17.20;64.10;;;;;;5031004;28;20475;-65
2022/05/02 09:06:18;;;;;;;5.97;2.80;;;17.20;64.00;;;;;;5030860;28;20098;-65
2022/05/02 09:09:09;;;;;;;5.25;2.80;;;17.30;64.10;;;;;;5031926;28;20407;-65
2022/05/02 09:12:03;;;;;;;3.50;2.70;;;17.20;64.10;;;;;;5032002;28;20395;-65
2022/05/02 09:15:05;;;;;;;4.80;2.50;;;17.20;64.00;;;;;;5009834;28;20476;-65
2022/05/02 09:17:49;;;;;;;6.35;3.17;;;17.20;64.00;;;;;;5010207;28;20476;-65
2022/05/02 09:20:31;;;;;;;4.63;2.25;;;17.20;64.20;;;;;;5010124;28;20137;-65
2022/05/02 09:23:02;;;;;;;6.35;2.95;;;17.20;64.10;;;;;;4993243;28;20508;-65
2022/05/02 09:26:02;;;;;;;4.72;3.17;;;17.20;64.10;;;;;;5010080;28;20052;-65
2022/05/02 09:28:48;;;;;;;4.82;2.85;;;17.20;64.00;;;;;;4996090;28;20040;-65
2022/05/02 09:31:19;;;;;;;5.05;2.70;;;17.20;64.00;;;;;;5009572;28;20486;-65
2022/05/02 09:34:15;;;;;;;4.90;3.03;;;17.20;64.10;;;;;;4993764;28;20495;-65
2022/05/02 09:36:42;;;;;;;7.88;2.90;;;17.20;64.00;;;;;;5009936;28;20030;-65
2022/05/02 09:39:14;;;;;;;3.80;2.65;;;17.20;64.10;;;;;;5009687;28;20034;-65
2022/05/02 09:42:06;;;;;;;3.80;2.65;;;17.20;64.00;;;;;;5009645;28;20105;-65
2022/05/02 09:51:13;;;;;;;4.22;3.03;;;17.20;64.10;;;;;;5014237;28;20076;-66
2022/05/02 09:54:01;;;;;;;4.03;2.83;;;17.20;64.00;;;;;;5014037;28;20484;-65
2022/05/02 09:56:38;;;;;;;3.83;2.40;;;17.20;64.10;;;;;;5014189;28;20105;-65
2022/05/02 09:59:23;;;;;;;3.65;2.85;;;17.10;64.10;;;;;;5014028;28;20026;-65
2022/05/02 10:01:50;;;;;;;3.25;2.47;;;17.20;64.00;;;;;;5014032;28;20064;-65
2022/05/02 10:04:48;;;;;;;5.25;2.83;;;17.20;64.20;;;;;;5015225;28;20034;-65
2022/05/02 10:07:16;;;;;;;2.65;2.28;;;17.20;64.00;;;;;;5013620;28;20026;-65
2022/05/02 10:10:05;;;;;;;5.45;2.50;;;17.20;64.10;;;;;;5014078;28;20092;-65
2022/05/02 10:12:49;;;;;;;5.47;2.75;;;17.20;63.90;;;;;;5028228;28;20080;-65
2022/05/02 10:15:21;;;;;;;3.55;2.13;;;17.20;64.10;;;;;;5034671;28;20025;-65
2022/05/02 10:18:16;;;;;;;4.70;2.53;;;17.20;64.00;;;;;;5034654;28;20021;-65
2022/05/02 10:20:56;;;;;;;6.55;2.78;;;17.20;63.90;;;;;;5034301;28;20032;-65
2022/05/02 10:23:43;;;;;;;4.38;2.50;;;17.20;64.00;;;;;;5034595;28;20052;-65
2022/05/02 10:26:28;;;;;;;4.30;2.55;;;17.20;64.00;;;;;;5034606;28;20105;-65
2022/05/02 10:29:15;;;;;;;4.63;2.72;;;17.20;64.10;;;;;;5033398;28;20025;-65
2022/05/02 10:31:40;;;;;;;3.28;2.40;;;17.20;64.00;;;;;;5034462;28;20036;-65
2022/05/02 10:34:07;;;;;;;4.53;2.35;;;17.20;64.10;;;;;;5016656;28;20121;-65
2022/05/02 10:36:39;;;;;;;4.60;2.65;;;17.10;64.00;;;;;;5016587;28;20028;-65
2022/05/02 10:39:23;;;;;;;3.80;2.35;;;17.20;64.00;;;;;;5016970;28;20028;-65
2022/05/02 10:41:49;;;;;;;3.78;2.58;;;17.20;63.90;;;;;;5033925;28;20127;-65
2022/05/02 10:44:15;;;;;;;4.32;2.50;;;17.10;64.00;;;;;;5016462;28;20423;-65
2022/05/02 10:46:45;;;;;;;4.50;2.47;;;17.20;64.00;;;;;;5032964;28;20108;-65
2022/05/02 10:49:37;;;;;;;4.05;2.78;;;17.20;64.00;;;;;;5033902;28;20049;-65
2022/05/02 10:52:45;;;;;;;6.40;2.40;;;17.20;63.90;;;;;;5032839;28;20028;-65
2022/05/02 10:55:20;;;;;;;3.35;2.38;;;17.20;63.80;;;;;;5031871;28;20050;-65
2022/05/02 10:57:50;;;;;;;3.65;2.30;;;17.10;64.00;;;;;;5033823;28;20104;-65
2022/05/02 11:00:16;;;;;;;3.47;2.40;;;17.10;64.00;;;;;;5032647;28;20022;-65
2022/05/02 11:02:54;;;;;;;5.53;2.25;;;17.10;63.90;;;;;;5034090;28;20049;-65
2022/05/02 11:05:59;;;;;;;4.03;2.30;;;17.20;63.90;;;;;;5032577;28;20093;-65
2022/05/02 11:08:50;;;;;;;3.92;2.30;;;17.20;63.80;;;;;;5033559;28;20496;-65
2022/05/02 11:11:25;;;;;;;2.08;1.88;;;17.20;63.90;;;;;;5032339;28;20013;-65
2022/05/02 11:13:57;;;;;;;4.22;2.45;;;17.10;64.00;;;;;;5032153;28;20061;-65
2022/05/02 11:16:26;;;;;;;3.80;2.53;;;17.10;63.90;;;;;;5016510;28;20018;-65
2022/05/02 11:22:13;;;;;;;3.30;2.45;;;17.20;63.80;;;;;;5033387;28;20045;-65
2022/05/02 11:25:06;;;;;;;2.92;2.05;;;17.10;64.00;;;;;;5033327;28;20025;-65
2022/05/02 11:27:34;;;;;;;5.07;2.33;;;17.10;64.00;;;;;;5033558;28;20021;-65
2022/05/02 11:30:03;;;;;;;3.53;2.38;;;17.10;64.00;;;;;;5033232;28;20044;-65
2022/05/02 11:32:55;;;;;;;3.05;2.42;;;17.10;64.00;;;;;;5033308;28;20104;-65
2022/05/02 11:35:36;;;;;;;4.18;2.50;;;17.10;63.90;;;;;;5033228;28;20109;-65
2022/05/02 11:38:29;;;;;;;4.90;2.80;;;17.20;63.90;;;;;;5015549;28;20072;-65
2022/05/02 11:41:17;;;;;;;3.40;2.47;;;17.20;63.90;;;;;;5033001;28;20045;-65
2022/05/02 11:43:44;;;;;;;3.85;2.42;;;17.10;64.00;;;;;;5032109;28;20055;-65
2022/05/02 11:46:10;;;;;;;3.53;2.70;;;17.10;64.00;;;;;;5032809;28;20160;-65
2022/05/02 11:48:53;;;;;;;3.85;2.50;;;17.10;64.00;;;;;;5032685;28;20104;-65
2022/05/02 11:51:40;;;;;;;2.83;2.58;;;17.10;63.90;;;;;;5032916;28;20040;-65
2022/05/02 11:54:11;;;;;;;3.15;2.53;;;17.10;63.90;;;;;;5031698;28;20098;-65
2022/05/02 11:56:47;;;;;;;2.70;2.37;;;17.10;64.00;;;;;;5031764;28;20025;-65
2022/05/02 11:59:13;;;;;;;4.50;2.50;;;17.10;63.90;;;;;;5031569;28;20435;-65
2022/05/02 12:01:40;;;;;;;2.67;2.20;;;17.10;64.00;;;;;;5031641;28;20025;-65
2022/05/02 12:04:06;;;;;;;4.35;2.72;;;17.10;64.00;;;;;;5031353;28;20108;-65
2022/05/02 12:06:42;;;;;;;3.60;2.38;;;17.10;63.90;;;;;;5031156;28;20160;-65
2022/05/02 12:09:17;;;;;;;3.72;2.65;;;17.10;63.90;;;;;;5032637;28;20430;-65
2022/05/02 12:11:53;;;;;;;3.97;2.63;;;17.10;64.00;;;;;;5031513;28;20029;-65
2022/05/02 12:14:20;;;;;;;2.75;2.55;;;17.20;63.90;;;;;;5031293;28;20021;-65
2022/05/02 12:17:06;;;;;;;2.55;2.17;;;17.10;63.90;;;;;;5031264;28;20032;-65
2022/05/02 12:19:32;;;;;;;2.53;2.08;;;17.20;63.90;;;;;;5032688;28;20041;-65
2022/05/02 12:21:59;;;;;;;2.63;1.95;;;17.10;64.00;;;;;;5031178;28;20025;-65
2022/05/02 12:24:27;;;;;;;3.72;2.53;;;17.10;64.00;;;;;;5031256;28;20022;-65
2022/05/02 12:26:52;;;;;;;3.83;2.33;;;17.20;64.00;;;;;;5032436;28;20017;-65
2022/05/02 12:29:19;;;;;;;3.25;2.80;;;17.20;64.00;;;;;;5031148;28;20120;-65
2022/05/02 12:31:58;;;;;;;4.20;2.85;;;17.20;64.00;;;;;;5032133;28;20025;-65
2022/05/02 12:34:40;;;;;;;3.83;2.50;;;17.20;64.00;;;;;;5032254;28;20021;-66
2022/05/02 12:37:24;;;;;;;2.42;2.10;;;17.20;63.90;;;;;;5031029;28;20031;-65
2022/05/02 12:39:51;;;;;;;3.47;2.55;;;17.20;63.90;;;;;;5032203;28;20021;-65
2022/05/02 12:42:21;;;;;;;2.67;2.47;;;17.10;64.00;;;;;;5031039;28;20045;-65
2022/05/02 12:45:01;;;;;;;3.40;2.63;;;17.20;64.00;;;;;;5014965;28;20504;-66
2022/05/02 12:47:28;;;;;;;3.05;2.35;;;17.20;64.00;;;;;;5032144;28;20530;-65
2022/05/02 12:50:02;;;;;;;2.25;2.00;;;17.10;63.90;;;;;;5030985;28;20534;-66
2022/05/02 12:52:29;;;;;;;2.95;2.00;;;17.20;64.00;;;;;;5032077;28;20040;-66
2022/05/02 12:54:54;;;;;;;2.35;2.15;;;17.10;64.00;;;;;;5030784;28;20024;-65
2022/05/02 13:00:31;;;;;;;2.30;2.10;;;17.20;63.90;;;;;;5030943;28;20113;-65
2022/05/02 13:03:19;;;;;;;3.20;2.50;;;17.10;64.00;;;;;;5032214;28;20013;-65
2022/05/02 13:05:53;;;;;;;3.17;2.38;;;17.10;64.00;;;;;;5031994;28;20112;-65
2022/05/02 13:08:28;;;;;;;4.10;2.67;;;17.10;64.00;;;;;;5030728;28;20029;-65
2022/05/02 13:11:07;;;;;;;3.13;2.42;;;17.10;64.00;;;;;;5031901;28;20476;-65
2022/05/02 13:13:48;;;;;;;3.42;2.38;;;17.10;64.00;;;;;;5015396;28;20100;-65
2022/05/02 13:16:43;;;;;;;3.28;1.90;;;17.10;64.00;;;;;;5031687;28;20125;-65
2022/05/02 13:19:08;;;;;;;2.28;2.08;;;17.20;64.00;;;;;;5031890;28;20033;-65
2022/05/02 13:21:34;;;;;;;3.40;2.10;;;17.10;64.10;;;;;;5034490;28;20495;-65
2022/05/02 13:24:09;;;;;;;3.15;2.10;;;17.10;64.00;;;;;;5034529;28;20029;-65
2022/05/02 13:26:44;;;;;;;3.20;2.25;;;17.10;64.00;;;;;;5035771;28;20021;-65
2022/05/02 13:29:15;;;;;;;2.92;2.55;;;17.20;64.00;;;;;;5035376;28;20042;-65
2022/05/02 13:31:44;;;;;;;2.40;2.17;;;17.10;64.00;;;;;;5035638;28;20033;-65
2022/05/02 13:34:35;;;;;;;2.70;2.28;;;17.10;64.00;;;;;;5035387;28;20061;-65
2022/05/02 13:37:15;;;;;;;3.40;2.30;;;17.10;63.90;;;;;;5035250;28;20045;-65
2022/05/02 13:40:02;;;;;;;2.63;2.15;;;17.10;64.00;;;;;;5034375;28;20026;-65
2022/05/02 13:43:05;;;;;;;2.38;2.17;;;17.20;64.00;;;;;;5033986;28;20452;-65
2022/05/02 13:45:41;;;;;;;2.42;2.13;;;17.20;64.00;;;;;;5034906;28;20037;-65
2022/05/02 13:48:15;;;;;;;2.60;2.40;;;17.10;64.10;;;;;;5033806;28;20395;-65
2022/05/02 13:50:48;;;;;;;2.33;2.13;;;17.10;64.00;;;;;;5034079;28;20046;-65